SACO/COR METAR and TAF weather

Enter ICAO airport designator
Station Type Date Time Source
SACO METAR 2018/12/13 07:00 UTC NOAA

SACO 130700Z 04008KT 5000 DZ SCT003 BKN015 21/21 Q1009 NOSIG


Station Type Date Time Source
SACO Decoded METAR 2018/12/13 07:00 UTC NOAA

Cordoba Aerodrome, Argentina (SACO) 31-19S 064-13W 474M
Dec 13, 2018 - 02:00 AM EST / 2018.12.13 0700 UTC
Wind: from the NE (040 degrees) at 9 MPH (8 KT):0
Visibility: 3 mile(s):0
Sky conditions: mostly cloudy
Weather: drizzle
Temperature: 69 F (21 C)
Dew Point: 69 F (21 C)
Relative Humidity: 100%
Pressure (altimeter): 29.80 in. Hg (1009 hPa)
ob: SACO 130700Z 04008KT 5000 DZ SCT003 BKN015 21/21 Q1009 NOSIG
cycle: 7

Station Type Date Time Source
SACO TAF 2018/12/13 06:15 UTC NOAA

TAF TAF SACO 130500Z 1306/1406 05005KT 9999 BKN025 TX34/1318Z TN17/1310Z
TEMPO 1308/1311 18015KT 5000 RASH/TS BKN020 OVC030 FEW040CB


Example: see airport list